createdAt,value
2024-01-11T00:00:36.958Z,-3.81
2024-01-11T00:11:17.531Z,-3.68
2024-01-11T00:21:41.700Z,-3.64
2024-01-11T00:32:03.084Z,-4.07
2024-01-11T00:42:24.497Z,-3.84
2024-01-11T00:52:45.404Z,-3.82
2024-01-11T01:03:06.345Z,-3.99
2024-01-11T01:13:27.448Z,-3.78
2024-01-11T01:23:48.562Z,-3.86
2024-01-11T01:34:09.931Z,-4.23
2024-01-11T01:44:30.809Z,-4.30
2024-01-11T01:54:52.054Z,-4.52
2024-01-11T02:05:15.405Z,-4.50
2024-01-11T02:15:36.819Z,-4.64
2024-01-11T02:25:59.007Z,-4.96
2024-01-11T02:36:24.224Z,-4.69
2024-01-11T02:46:45.291Z,-5.29
2024-01-11T02:57:06.042Z,-4.76
2024-01-11T03:07:27.278Z,-5.07
2024-01-11T03:17:48.823Z,-5.03
2024-01-11T03:28:10.437Z,-5.27
2024-01-11T03:38:31.563Z,-5.47
2024-01-11T03:48:52.832Z,-5.68
2024-01-11T03:59:13.639Z,-5.78
2024-01-11T04:09:34.471Z,-6.05
2024-01-11T04:19:55.294Z,-6.24
2024-01-11T04:30:16.503Z,-6.55
2024-01-11T04:40:37.653Z,-6.61
2024-01-11T04:50:58.495Z,-6.41
2024-01-11T05:01:19.948Z,-6.47
2024-01-11T05:11:41.261Z,-6.77
2024-01-11T05:22:02.837Z,-7.12
2024-01-11T05:32:23.694Z,-6.90
2024-01-11T05:42:44.609Z,-6.90
2024-01-11T05:53:06.558Z,-6.79
2024-01-11T06:03:28.126Z,-4.97
2024-01-11T06:13:49.084Z,-5.11
2024-01-11T06:24:09.986Z,-5.43
2024-01-11T06:34:31.189Z,-6.19
2024-01-11T06:44:52.313Z,-6.22
2024-01-11T06:55:13.138Z,-6.64
2024-01-11T07:05:34.083Z,-6.79
2024-01-11T07:15:56.697Z,-6.89
2024-01-11T07:26:17.345Z,-7.13
2024-01-11T07:36:38.142Z,-7.35
2024-01-11T07:47:02.065Z,-7.61
2024-01-11T07:57:24.333Z,-7.44
2024-01-11T08:07:45.296Z,-7.12
2024-01-11T08:18:06.407Z,-7.14
2024-01-11T08:28:27.320Z,-6.59
2024-01-11T08:38:48.424Z,-6.62
2024-01-11T08:49:09.764Z,-6.44
2024-01-11T08:59:30.898Z,-6.24
2024-01-11T09:09:56.727Z,-5.95
2024-01-11T09:20:19.998Z,-5.75
2024-01-11T09:30:41.014Z,-5.24
2024-01-11T09:41:11.667Z,-5.09
2024-01-11T09:51:35.791Z,-4.82
2024-01-11T10:01:56.624Z,-4.74
2024-01-11T10:12:24.383Z,-4.45
2024-01-11T10:22:47.643Z,-4.42
2024-01-11T10:33:09.070Z,-4.26
2024-01-11T10:43:32.200Z,-3.81
2024-01-11T10:53:54.796Z,-3.57
2024-01-11T11:04:17.605Z,-3.22
2024-01-11T11:14:39.667Z,-2.97
2024-01-11T11:25:07.048Z,-2.72
2024-01-11T11:35:28.324Z,-2.36
2024-01-11T11:45:51.190Z,-1.80
2024-01-11T11:56:13.494Z,-1.71
2024-01-11T12:06:34.978Z,-1.74
2024-01-11T12:16:59.608Z,-1.85
2024-01-11T12:27:21.782Z,-1.84
2024-01-11T12:37:42.645Z,-1.71
2024-01-11T12:48:07.491Z,-1.60
2024-01-11T12:58:28.499Z,-1.54
2024-01-11T13:08:50.039Z,-1.44
2024-01-11T13:19:19.935Z,-1.43
2024-01-11T13:29:47.621Z,-1.27
2024-01-11T13:40:10.871Z,-1.16
2024-01-11T13:50:32.281Z,-1.20
2024-01-11T14:00:54.582Z,-1.23
2024-01-11T14:11:16.700Z,-1.09
2024-01-11T14:21:37.986Z,-0.99
2024-01-11T14:31:58.878Z,-0.96
2024-01-11T14:42:19.761Z,-1.02
2024-01-11T14:52:40.571Z,-1.13
2024-01-11T15:03:02.102Z,-1.04
2024-01-11T15:13:23.654Z,-0.99
2024-01-11T15:23:44.631Z,-0.87
2024-01-11T15:34:05.739Z,-0.95
2024-01-11T15:44:28.754Z,-0.80
2024-01-11T15:54:50.796Z,-0.60
2024-01-11T16:05:12.231Z,-0.79
2024-01-11T16:15:33.171Z,-0.73
2024-01-11T16:25:54.902Z,0.20
2024-01-11T16:36:18.602Z,-0.32
2024-01-11T16:46:39.985Z,-0.72
2024-01-11T16:57:01.516Z,-0.97
2024-01-11T17:07:22.352Z,-1.10
2024-01-11T17:17:43.818Z,-0.52
2024-01-11T17:28:06.354Z,-0.88
2024-01-11T17:38:28.149Z,-1.28
2024-01-11T17:48:50.174Z,-1.46
2024-01-11T17:59:11.273Z,-1.72
2024-01-11T18:09:35.517Z,-1.84
2024-01-11T18:19:56.903Z,-1.90
2024-01-11T18:30:18.314Z,-2.15
2024-01-11T18:40:39.605Z,-2.22
2024-01-11T18:51:02.070Z,-2.36
2024-01-11T19:01:26.721Z,-2.31
2024-01-11T19:11:51.470Z,-2.65
2024-01-11T19:22:12.527Z,-2.66
2024-01-11T19:32:33.751Z,-2.62
2024-01-11T19:42:55.104Z,-2.66
2024-01-11T19:53:17.240Z,-2.94
2024-01-11T20:03:40.402Z,-3.06
2024-01-11T20:14:01.129Z,-3.17
2024-01-11T20:24:22.260Z,-3.52
2024-01-11T20:34:43.243Z,-3.72
2024-01-11T20:45:05.176Z,-3.78
2024-01-11T20:55:26.237Z,-4.06
2024-01-11T21:05:50.161Z,-4.13
2024-01-11T21:16:12.332Z,-4.19
2024-01-11T21:26:33.804Z,-4.16
2024-01-11T21:36:55.434Z,-3.98
2024-01-11T21:47:16.997Z,-3.81
2024-01-11T21:57:38.446Z,-3.74
2024-01-11T22:07:59.653Z,-3.59
2024-01-11T22:18:20.647Z,-3.54
2024-01-11T22:28:41.918Z,-3.50
2024-01-11T22:39:03.925Z,-3.58
2024-01-11T22:49:25.385Z,-3.46
2024-01-11T22:59:46.478Z,-3.56
2024-01-11T23:10:07.770Z,-3.67
2024-01-11T23:20:28.830Z,-3.78
2024-01-11T23:30:50.253Z,-3.72
2024-01-11T23:41:11.398Z,-3.66
2024-01-11T23:51:33.554Z,-3.56
